sensor_id;sensor_type;location;lat;lon;timestamp;pressure;altitude;pressure_sealevel;temperature;humidity
77216;BME280;66210;53.282;9.864;2023-07-13T00:01:53;100726.69;;;16.54;83.34
77216;BME280;66210;53.282;9.864;2023-07-13T00:04:22;100727.47;;;16.50;83.43
77216;BME280;66210;53.282;9.864;2023-07-13T00:06:49;100733.44;;;16.49;83.27
77216;BME280;66210;53.282;9.864;2023-07-13T00:09:17;100735.94;;;16.48;82.87
77216;BME280;66210;53.282;9.864;2023-07-13T00:11:45;100733.38;;;16.46;83.00
77216;BME280;66210;53.282;9.864;2023-07-13T00:14:15;100727.28;;;16.42;83.06
77216;BME280;66210;53.282;9.864;2023-07-13T00:16:42;100732.47;;;16.44;83.01
77216;BME280;66210;53.282;9.864;2023-07-13T00:19:13;100731.56;;;16.42;82.87
77216;BME280;66210;53.282;9.864;2023-07-13T00:21:40;100732.44;;;16.42;82.50
77216;BME280;66210;53.282;9.864;2023-07-13T00:24:11;100723.00;;;16.41;82.72
77216;BME280;66210;53.282;9.864;2023-07-13T00:26:41;100723.78;;;16.37;82.96
77216;BME280;66210;53.282;9.864;2023-07-13T00:29:11;100725.38;;;16.34;82.66
77216;BME280;66210;53.282;9.864;2023-07-13T00:31:38;100728.81;;;16.33;82.37
77216;BME280;66210;53.282;9.864;2023-07-13T00:34:05;100724.28;;;16.21;82.45
77216;BME280;66210;53.282;9.864;2023-07-13T00:36:32;100734.59;;;16.24;82.84
77216;BME280;66210;53.282;9.864;2023-07-13T00:38:59;100740.53;;;16.23;82.47
77216;BME280;66210;53.282;9.864;2023-07-13T00:41:26;100734.38;;;16.15;82.08
77216;BME280;66210;53.282;9.864;2023-07-13T00:43:52;100747.22;;;16.16;82.12
77216;BME280;66210;53.282;9.864;2023-07-13T00:46:31;100744.59;;;16.13;82.14
77216;BME280;66210;53.282;9.864;2023-07-13T00:49:02;100749.66;;;16.12;82.14
77216;BME280;66210;53.282;9.864;2023-07-13T00:51:36;100742.72;;;16.06;82.20
77216;BME280;66210;53.282;9.864;2023-07-13T00:54:09;100747.72;;;16.02;82.15
77216;BME280;66210;53.282;9.864;2023-07-13T00:56:39;100750.28;;;16.02;82.39
77216;BME280;66210;53.282;9.864;2023-07-13T00:59:08;100745.88;;;15.96;81.84
77216;BME280;66210;53.282;9.864;2023-07-13T01:01:37;100744.03;;;15.90;81.91
77216;BME280;66210;53.282;9.864;2023-07-13T01:04:05;100751.84;;;15.95;81.93
77216;BME280;66210;53.282;9.864;2023-07-13T01:06:36;100752.53;;;15.89;81.84
77216;BME280;66210;53.282;9.864;2023-07-13T01:09:04;100749.88;;;15.85;82.04
77216;BME280;66210;53.282;9.864;2023-07-13T01:11:33;100747.25;;;15.82;82.05
77216;BME280;66210;53.282;9.864;2023-07-13T01:14:00;100754.88;;;15.78;82.21
77216;BME280;66210;53.282;9.864;2023-07-13T01:16:31;100750.50;;;15.74;82.06
77216;BME280;66210;53.282;9.864;2023-07-13T01:18:58;100743.41;;;15.66;82.07
77216;BME280;66210;53.282;9.864;2023-07-13T01:21:26;100749.34;;;15.65;82.43
77216;BME280;66210;53.282;9.864;2023-07-13T01:23:53;100755.25;;;15.62;81.91
77216;BME280;66210;53.282;9.864;2023-07-13T01:26:20;100752.63;;;15.59;82.22
77216;BME280;66210;53.282;9.864;2023-07-13T01:28:47;100751.59;;;15.52;82.13
77216;BME280;66210;53.282;9.864;2023-07-13T01:31:14;100753.19;;;15.49;82.21
77216;BME280;66210;53.282;9.864;2023-07-13T01:33:41;100760.88;;;15.49;82.23
77216;BME280;66210;53.282;9.864;2023-07-13T01:36:09;100758.31;;;15.47;82.23
77216;BME280;66210;53.282;9.864;2023-07-13T01:38:37;100751.38;;;15.43;82.55
77216;BME280;66210;53.282;9.864;2023-07-13T01:41:03;100748.69;;;15.38;82.34
77216;BME280;66210;53.282;9.864;2023-07-13T01:43:30;100748.69;;;15.38;82.29
77216;BME280;66210;53.282;9.864;2023-07-13T01:45:57;100752.03;;;15.36;82.35
77216;BME280;66210;53.282;9.864;2023-07-13T01:48:44;100745.00;;;15.29;81.91
77216;BME280;66210;53.282;9.864;2023-07-13T01:51:10;100741.56;;;15.28;82.51
77216;BME280;66210;53.282;9.864;2023-07-13T01:53:37;100740.66;;;15.26;82.53
77216;BME280;66210;53.282;9.864;2023-07-13T01:56:04;100751.75;;;15.27;82.50
77216;BME280;66210;53.282;9.864;2023-07-13T01:58:31;100744.00;;;15.24;82.70
77216;BME280;66210;53.282;9.864;2023-07-13T02:00:57;100740.59;;;15.23;82.46
77216;BME280;66210;53.282;9.864;2023-07-13T02:03:24;100723.16;;;15.10;82.59
77216;BME280;66210;53.282;9.864;2023-07-13T02:05:51;100737.81;;;15.15;82.57
77216;BME280;66210;53.282;9.864;2023-07-13T02:08:18;100748.94;;;15.16;82.50
77216;BME280;66210;53.282;9.864;2023-07-13T02:10:44;100745.41;;;15.12;82.75
77216;BME280;66210;53.282;9.864;2023-07-13T02:13:11;100749.56;;;15.09;82.74
77216;BME280;66210;53.282;9.864;2023-07-13T02:15:39;100757.22;;;15.07;82.63
77216;BME280;66210;53.282;9.864;2023-07-13T02:18:07;100755.34;;;15.02;82.59
77216;BME280;66210;53.282;9.864;2023-07-13T02:20:34;100751.88;;;15.00;82.70
77216;BME280;66210;53.282;9.864;2023-07-13T02:23:00;100761.34;;;15.02;82.60
77216;BME280;66210;53.282;9.864;2023-07-13T02:25:27;100757.88;;;15.00;82.36
77216;BME280;66210;53.282;9.864;2023-07-13T02:27:54;100752.53;;;14.92;82.52
77216;BME280;66210;53.282;9.864;2023-07-13T02:30:22;100764.50;;;14.93;82.63
77216;BME280;66210;53.282;9.864;2023-07-13T02:32:51;100755.09;;;14.92;82.30
77216;BME280;66210;53.282;9.864;2023-07-13T02:35:18;100758.34;;;14.87;82.39
77216;BME280;66210;53.282;9.864;2023-07-13T02:37:45;100760.13;;;14.89;82.47
77216;BME280;66210;53.282;9.864;2023-07-13T02:40:11;100763.47;;;14.87;82.47
77216;BME280;66210;53.282;9.864;2023-07-13T02:42:39;100760.81;;;14.84;82.14
77216;BME280;66210;53.282;9.864;2023-07-13T02:45:07;100753.84;;;14.78;82.52
77216;BME280;66210;53.282;9.864;2023-07-13T02:47:36;100761.50;;;14.78;82.46
77216;BME280;66210;53.282;9.864;2023-07-13T02:50:03;100756.28;;;14.75;82.21
77216;BME280;66210;53.282;9.864;2023-07-13T02:52:30;100751.03;;;14.70;82.15
77216;BME280;66210;53.282;9.864;2023-07-13T02:54:56;100746.50;;;14.60;82.55
77216;BME280;66210;53.282;9.864;2023-07-13T02:57:23;100758.41;;;14.60;82.45
77216;BME280;66210;53.282;9.864;2023-07-13T02:59:50;100760.81;;;14.55;82.80
77216;BME280;66210;53.282;9.864;2023-07-13T03:02:16;100761.53;;;14.51;82.78
77216;BME280;66210;53.282;9.864;2023-07-13T03:04:44;100758.06;;;14.49;83.05
77216;BME280;66210;53.282;9.864;2023-07-13T03:07:10;100764.75;;;14.45;82.90
77216;BME280;66210;53.282;9.864;2023-07-13T03:09:37;100761.28;;;14.43;82.35
77216;BME280;66210;53.282;9.864;2023-07-13T03:12:04;100768.91;;;14.42;82.82
77216;BME280;66210;53.282;9.864;2023-07-13T03:14:31;100762.75;;;14.35;82.42
77216;BME280;66210;53.282;9.864;2023-07-13T03:16:58;100760.91;;;14.31;82.80
77216;BME280;66210;53.282;9.864;2023-07-13T03:19:24;100758.31;;;14.29;83.17
77216;BME280;66210;53.282;9.864;2023-07-13T03:21:51;100757.31;;;14.26;82.90
77216;BME280;66210;53.282;9.864;2023-07-13T03:24:18;100763.31;;;14.26;82.82
77216;BME280;66210;53.282;9.864;2023-07-13T03:26:45;100764.13;;;14.25;82.82
77216;BME280;66210;53.282;9.864;2023-07-13T03:29:12;100758.88;;;14.21;83.21
77216;BME280;66210;53.282;9.864;2023-07-13T03:31:39;100760.63;;;14.22;83.24
77216;BME280;66210;53.282;9.864;2023-07-13T03:34:06;100757.09;;;14.18;83.28
77216;BME280;66210;53.282;9.864;2023-07-13T03:36:33;100766.53;;;14.21;83.20
77216;BME280;66210;53.282;9.864;2023-07-13T03:39:01;100770.06;;;14.24;82.81
77216;BME280;66210;53.282;9.864;2023-07-13T03:41:29;100771.78;;;14.24;82.93
77216;BME280;66210;53.282;9.864;2023-07-13T03:43:58;100769.16;;;14.22;82.53
77216;BME280;66210;53.282;9.864;2023-07-13T03:46:25;100774.25;;;14.22;82.98
77216;BME280;66210;53.282;9.864;2023-07-13T03:48:52;100774.31;;;14.24;82.33
77216;BME280;66210;53.282;9.864;2023-07-13T03:51:19;100778.59;;;14.25;82.94
77216;BME280;66210;53.282;9.864;2023-07-13T03:53:47;100775.19;;;14.24;82.72
77216;BME280;66210;53.282;9.864;2023-07-13T03:56:16;100770.00;;;14.23;83.09
77216;BME280;66210;53.282;9.864;2023-07-13T03:58:45;100770.88;;;14.23;82.86
77216;BME280;66210;53.282;9.864;2023-07-13T04:01:13;100781.09;;;14.23;83.50
77216;BME280;66210;53.282;9.864;2023-07-13T04:03:40;100775.22;;;14.26;82.98
77216;BME280;66210;53.282;9.864;2023-07-13T04:06:13;100771.00;;;14.26;83.26
77216;BME280;66210;53.282;9.864;2023-07-13T04:08:42;100773.56;;;14.26;83.12
77216;BME280;66210;53.282;9.864;2023-07-13T04:11:09;100777.06;;;14.30;83.35
77216;BME280;66210;53.282;9.864;2023-07-13T04:13:35;100768.53;;;14.29;83.23
77216;BME280;66210;53.282;9.864;2023-07-13T04:16:02;100773.72;;;14.32;83.18
77216;BME280;66210;53.282;9.864;2023-07-13T04:18:29;100776.25;;;14.31;83.80
77216;BME280;66210;53.282;9.864;2023-07-13T04:20:56;100774.56;;;14.31;83.98
77216;BME280;66210;53.282;9.864;2023-07-13T04:23:22;100774.75;;;14.38;83.58
77216;BME280;66210;53.282;9.864;2023-07-13T04:25:52;100774.03;;;14.42;83.81
77216;BME280;66210;53.282;9.864;2023-07-13T04:28:23;100767.31;;;14.45;84.04
77216;BME280;66210;53.282;9.864;2023-07-13T04:30:50;100766.50;;;14.46;84.23
77216;BME280;66210;53.282;9.864;2023-07-13T04:33:17;100762.34;;;14.50;83.61
77216;BME280;66210;53.282;9.864;2023-07-13T04:35:53;100750.53;;;14.53;84.00
77216;BME280;66210;53.282;9.864;2023-07-13T04:38:24;100745.47;;;14.55;84.09
77216;BME280;66210;53.282;9.864;2023-07-13T04:40:52;100760.28;;;14.65;84.31
77216;BME280;66210;53.282;9.864;2023-07-13T04:43:18;100756.00;;;14.66;84.31
77216;BME280;66210;53.282;9.864;2023-07-13T04:45:45;100765.56;;;14.71;83.94
77216;BME280;66210;53.282;9.864;2023-07-13T04:48:12;100770.78;;;14.74;84.62
77216;BME280;66210;53.282;9.864;2023-07-13T04:50:39;100765.56;;;14.71;84.69
77216;BME280;66210;53.282;9.864;2023-07-13T04:53:06;100778.44;;;14.74;85.12
77216;BME280;66210;53.282;9.864;2023-07-13T04:55:33;100770.78;;;14.74;85.08
77216;BME280;66210;53.282;9.864;2023-07-13T04:58:00;100781.19;;;14.81;85.21
77216;BME280;66210;53.282;9.864;2023-07-13T05:00:27;100774.47;;;14.84;85.28
77216;BME280;66210;53.282;9.864;2023-07-13T05:02:56;100786.56;;;14.90;85.56
77216;BME280;66210;53.282;9.864;2023-07-13T05:05:25;100784.19;;;14.96;85.41
77216;BME280;66210;53.282;9.864;2023-07-13T05:07:53;100783.41;;;14.99;85.43
77216;BME280;66210;53.282;9.864;2023-07-13T05:10:20;100784.50;;;15.07;85.19
77216;BME280;66210;53.282;9.864;2023-07-13T05:12:47;100792.50;;;15.19;85.29
77216;BME280;66210;53.282;9.864;2023-07-13T05:15:14;100791.06;;;15.29;85.67
77216;BME280;66210;53.282;9.864;2023-07-13T05:17:41;100784.53;;;15.38;85.79
77216;BME280;66210;53.282;9.864;2023-07-13T05:20:08;100793.38;;;15.50;85.55
77216;BME280;66210;53.282;9.864;2023-07-13T05:22:35;100791.03;;;15.59;85.23
77216;BME280;66210;53.282;9.864;2023-07-13T05:25:05;100798.97;;;15.68;85.36
77216;BME280;66210;53.282;9.864;2023-07-13T05:27:33;100803.44;;;15.74;84.99
77216;BME280;66210;53.282;9.864;2023-07-13T05:30:02;100802.66;;;15.78;85.29
77216;BME280;66210;53.282;9.864;2023-07-13T05:32:29;100800.16;;;15.79;85.06
77216;BME280;66210;53.282;9.864;2023-07-13T05:34:56;100803.53;;;15.78;84.75
77216;BME280;66210;53.282;9.864;2023-07-13T05:37:23;100807.03;;;15.82;85.02
77216;BME280;66210;53.282;9.864;2023-07-13T05:39:49;100798.50;;;15.82;85.20
77216;BME280;66210;53.282;9.864;2023-07-13T05:42:16;100782.94;;;15.75;85.36
77216;BME280;66210;53.282;9.864;2023-07-13T05:44:43;100801.13;;;15.85;85.35
77216;BME280;66210;53.282;9.864;2023-07-13T05:47:10;100793.41;;;15.83;85.17
77216;BME280;66210;53.282;9.864;2023-07-13T05:49:37;100800.31;;;15.87;85.58
77216;BME280;66210;53.282;9.864;2023-07-13T05:52:04;100810.63;;;15.89;85.45
77216;BME280;66210;53.282;9.864;2023-07-13T05:54:31;100806.28;;;15.86;85.13
77216;BME280;66210;53.282;9.864;2023-07-13T05:56:58;100813.22;;;15.90;85.09
77216;BME280;66210;53.282;9.864;2023-07-13T05:59:25;100816.78;;;15.95;85.31
77216;BME280;66210;53.282;9.864;2023-07-13T06:01:52;100804.06;;;16.00;85.27
77216;BME280;66210;53.282;9.864;2023-07-13T06:04:19;100814.53;;;16.08;85.17
77216;BME280;66210;53.282;9.864;2023-07-13T06:06:47;100811.38;;;16.19;84.99
77216;BME280;66210;53.282;9.864;2023-07-13T06:09:14;100820.13;;;16.28;84.47
77216;BME280;66210;53.282;9.864;2023-07-13T06:11:40;100812.69;;;16.38;84.58
77216;BME280;66210;53.282;9.864;2023-07-13T06:14:07;100809.63;;;16.53;83.89
77216;BME280;66210;53.282;9.864;2023-07-13T06:16:34;100815.09;;;16.69;83.61
77216;BME280;66210;53.282;9.864;2023-07-13T06:19:01;100811.88;;;16.79;83.20
77216;BME280;66210;53.282;9.864;2023-07-13T06:21:28;100814.81;;;16.93;82.68
77216;BME280;66210;53.282;9.864;2023-07-13T06:23:55;100820.03;;;16.99;82.52
77216;BME280;66210;53.282;9.864;2023-07-13T06:26:22;100820.13;;;17.03;82.23
77216;BME280;66210;53.282;9.864;2023-07-13T06:28:48;100822.06;;;17.14;82.37
77216;BME280;66210;53.282;9.864;2023-07-13T06:31:15;100827.25;;;17.17;81.59
77216;BME280;66210;53.282;9.864;2023-07-13T06:33:43;100832.44;;;17.18;81.66
77216;BME280;66210;53.282;9.864;2023-07-13T06:36:10;100822.97;;;17.16;81.60
77216;BME280;66210;53.282;9.864;2023-07-13T06:38:37;100837.69;;;17.24;81.42
77216;BME280;66210;53.282;9.864;2023-07-13T06:41:07;100836.03;;;17.27;80.97
77216;BME280;66210;53.282;9.864;2023-07-13T06:43:34;100836.91;;;17.27;81.69
77216;BME280;66210;53.282;9.864;2023-07-13T06:46:01;100824.06;;;17.27;81.55
77216;BME280;66210;53.282;9.864;2023-07-13T06:48:28;100832.78;;;17.37;81.35
77216;BME280;66210;53.282;9.864;2023-07-13T06:50:55;100833.75;;;17.40;81.07
77216;BME280;66210;53.282;9.864;2023-07-13T06:53:23;100830.34;;;17.43;80.95
77216;BME280;66210;53.282;9.864;2023-07-13T06:55:50;100830.47;;;17.49;81.05
77216;BME280;66210;53.282;9.864;2023-07-13T06:58:18;100828.00;;;17.54;80.76
77216;BME280;66210;53.282;9.864;2023-07-13T07:00:45;100825.44;;;17.54;81.20
77216;BME280;66210;53.282;9.864;2023-07-13T07:03:13;100837.50;;;17.59;80.86
77216;BME280;66210;53.282;9.864;2023-07-13T07:05:40;100829.75;;;17.56;80.68
77216;BME280;66210;53.282;9.864;2023-07-13T07:08:07;100826.34;;;17.57;80.83
77216;BME280;66210;53.282;9.864;2023-07-13T07:10:34;100840.25;;;17.69;80.46
77216;BME280;66210;53.282;9.864;2023-07-13T07:13:02;100837.75;;;17.72;80.32
77216;BME280;66210;53.282;9.864;2023-07-13T07:15:29;100837.78;;;17.75;79.53
77216;BME280;66210;53.282;9.864;2023-07-13T07:17:56;100838.69;;;17.77;78.96
77216;BME280;66210;53.282;9.864;2023-07-13T07:20:23;100836.09;;;17.75;79.23
77216;BME280;66210;53.282;9.864;2023-07-13T07:22:50;100838.84;;;17.83;78.94
77216;BME280;66210;53.282;9.864;2023-07-13T07:25:17;100841.50;;;17.88;79.04
77216;BME280;66210;53.282;9.864;2023-07-13T07:27:43;100847.66;;;17.97;78.87
77216;BME280;66210;53.282;9.864;2023-07-13T07:30:13;100848.66;;;18.07;78.65
77216;BME280;66210;53.282;9.864;2023-07-13T07:32:43;100848.03;;;18.20;78.52
77216;BME280;66210;53.282;9.864;2023-07-13T07:35:13;100855.88;;;18.26;77.65
77216;BME280;66210;53.282;9.864;2023-07-13T07:37:39;100852.53;;;18.32;78.04
77216;BME280;66210;53.282;9.864;2023-07-13T07:40:09;100846.56;;;18.35;77.17
77216;BME280;66210;53.282;9.864;2023-07-13T07:42:39;100856.16;;;18.43;77.28
77216;BME280;66210;53.282;9.864;2023-07-13T07:45:06;100849.38;;;18.50;77.74
77216;BME280;66210;53.282;9.864;2023-07-13T07:47:33;100855.59;;;18.64;77.19
77216;BME280;66210;53.282;9.864;2023-07-13T07:50:00;100851.44;;;18.73;76.26
77216;BME280;66210;53.282;9.864;2023-07-13T07:52:26;100842.88;;;18.75;76.04
77216;BME280;66210;53.282;9.864;2023-07-13T07:54:53;100848.16;;;18.83;76.06
77216;BME280;66210;53.282;9.864;2023-07-13T07:57:23;100848.16;;;18.81;74.13
77216;BME280;66210;53.282;9.864;2023-07-13T07:59:52;100855.81;;;18.78;74.94
77216;BME280;66210;53.282;9.864;2023-07-13T08:02:22;100845.44;;;18.74;74.89
77216;BME280;66210;53.282;9.864;2023-07-13T08:04:52;100849.84;;;18.79;74.95
77216;BME280;66210;53.282;9.864;2023-07-13T08:07:22;100854.13;;;18.80;75.63
77216;BME280;66210;53.282;9.864;2023-07-13T08:09:52;100845.84;;;19.01;74.90
77216;BME280;66210;53.282;9.864;2023-07-13T08:12:19;100855.03;;;19.52;73.72
77216;BME280;66210;53.282;9.864;2023-07-13T08:15:10;100851.34;;;20.10;70.80
77216;BME280;66210;53.282;9.864;2023-07-13T08:17:37;100844.78;;;20.47;69.40
77216;BME280;66210;53.282;9.864;2023-07-13T08:20:04;100848.41;;;20.75;68.78
77216;BME280;66210;53.282;9.864;2023-07-13T08:22:31;100840.84;;;21.06;67.25
77216;BME280;66210;53.282;9.864;2023-07-13T08:24:59;100841.00;;;21.52;66.95
77216;BME280;66210;53.282;9.864;2023-07-13T08:27:27;100837.63;;;21.90;65.86
77216;BME280;66210;53.282;9.864;2023-07-13T08:29:54;100840.22;;;21.86;64.37
77216;BME280;66210;53.282;9.864;2023-07-13T08:32:22;100847.13;;;21.68;65.42
77216;BME280;66210;53.282;9.864;2023-07-13T08:34:50;100847.88;;;21.39;65.50
77216;BME280;66210;53.282;9.864;2023-07-13T08:37:17;100847.81;;;21.24;64.47
77216;BME280;66210;53.282;9.864;2023-07-13T08:39:44;100863.25;;;21.10;65.68
77216;BME280;66210;53.282;9.864;2023-07-13T08:42:30;100854.44;;;20.76;66.79
77216;BME280;66210;53.282;9.864;2023-07-13T08:45:18;100861.97;;;20.48;68.16
77216;BME280;66210;53.282;9.864;2023-07-13T08:50:31;100851.03;;;20.80;68.41
77216;BME280;66210;53.282;9.864;2023-07-13T08:53:16;100858.97;;;21.12;66.65
77216;BME280;66210;53.282;9.864;2023-07-13T08:55:43;100858.91;;;21.02;66.74
77216;BME280;66210;53.282;9.864;2023-07-13T08:58:12;100862.25;;;20.84;67.27
77216;BME280;66210;53.282;9.864;2023-07-13T09:00:56;100858.63;;;20.57;67.58
77216;BME280;66210;53.282;9.864;2023-07-13T09:03:31;100856.72;;;20.31;68.49
77216;BME280;66210;53.282;9.864;2023-07-13T09:06:01;100865.94;;;20.06;69.04
77216;BME280;66210;53.282;9.864;2023-07-13T09:08:46;100855.41;;;19.83;69.75
77216;BME280;66210;53.282;9.864;2023-07-13T09:16:44;100863.81;;;20.59;69.50
77216;BME280;66210;53.282;9.864;2023-07-13T09:19:20;100852.13;;;21.31;66.85
77216;BME280;66210;53.282;9.864;2023-07-13T09:21:50;100853.16;;;21.78;63.72
77216;BME280;66210;53.282;9.864;2023-07-13T09:24:29;100843.75;;;22.25;62.22
77216;BME280;66210;53.282;9.864;2023-07-13T09:26:58;100839.38;;;22.71;61.07
77216;BME280;66210;53.282;9.864;2023-07-13T09:29:31;100842.69;;;23.21;59.58
77216;BME280;66210;53.282;9.864;2023-07-13T09:32:02;100842.56;;;23.42;58.39
77216;BME280;66210;53.282;9.864;2023-07-13T09:34:31;100848.75;;;23.18;58.93
77216;BME280;66210;53.282;9.864;2023-07-13T09:36:58;100846.25;;;22.75;59.94
77216;BME280;66210;53.282;9.864;2023-07-13T09:39:34;100855.78;;;22.49;59.31
77216;BME280;66210;53.282;9.864;2023-07-13T09:44:37;100843.69;;;22.17;59.79
77216;BME280;66210;53.282;9.864;2023-07-13T09:47:16;100848.91;;;22.38;61.44
77216;BME280;66210;53.282;9.864;2023-07-13T09:49:43;100859.22;;;22.60;59.23
77216;BME280;66210;53.282;9.864;2023-07-13T09:52:14;100855.78;;;22.58;58.99
77216;BME280;66210;53.282;9.864;2023-07-13T09:54:48;100845.38;;;22.82;59.74
77216;BME280;66210;53.282;9.864;2023-07-13T09:57:18;100850.38;;;23.33;57.77
77216;BME280;66210;53.282;9.864;2023-07-13T09:59:48;100851.13;;;23.61;55.83
77216;BME280;66210;53.282;9.864;2023-07-13T10:07:25;100862.56;;;23.19;57.36
77216;BME280;66210;53.282;9.864;2023-07-13T10:10:00;100858.28;;;22.93;56.20
77216;BME280;66210;53.282;9.864;2023-07-13T10:12:30;100862.69;;;22.63;58.14
77216;BME280;66210;53.282;9.864;2023-07-13T10:15:02;100863.56;;;22.39;58.85
77216;BME280;66210;53.282;9.864;2023-07-13T10:17:55;100860.09;;;22.11;59.78
77216;BME280;66210;53.282;9.864;2023-07-13T10:20:24;100855.75;;;21.92;60.47
77216;BME280;66210;53.282;9.864;2023-07-13T10:23:00;100858.34;;;21.79;62.18
77216;BME280;66210;53.282;9.864;2023-07-13T10:25:34;100855.75;;;22.15;61.43
77216;BME280;66210;53.282;9.864;2023-07-13T10:28:09;100854.84;;;22.82;59.25
77216;BME280;66210;53.282;9.864;2023-07-13T10:30:41;100851.19;;;23.48;54.83
77216;BME280;66210;53.282;9.864;2023-07-13T10:33:12;100850.94;;;23.88;53.11
77216;BME280;66210;53.282;9.864;2023-07-13T10:35:43;100852.34;;;24.30;53.68
77216;BME280;66210;53.282;9.864;2023-07-13T10:38:18;100850.47;;;24.46;53.28
77216;BME280;66210;53.282;9.864;2023-07-13T10:41:10;100849.75;;;24.30;54.08
77216;BME280;66210;53.282;9.864;2023-07-13T10:43:42;100851.06;;;23.71;55.38
77216;BME280;66210;53.282;9.864;2023-07-13T10:46:14;100862.41;;;23.53;56.25
77216;BME280;66210;53.282;9.864;2023-07-13T10:48:43;100849.28;;;23.82;54.92
77216;BME280;66210;53.282;9.864;2023-07-13T10:51:14;100861.91;;;24.25;54.04
77216;BME280;66210;53.282;9.864;2023-07-13T10:53:42;100852.09;;;24.62;53.07
77216;BME280;66210;53.282;9.864;2023-07-13T10:56:26;100847.25;;;25.09;50.15
77216;BME280;66210;53.282;9.864;2023-07-13T11:02:00;100848.34;;;25.58;49.77
77216;BME280;66210;53.282;9.864;2023-07-13T11:04:44;100839.41;;;25.76;50.02
77216;BME280;66210;53.282;9.864;2023-07-13T11:07:21;100847.06;;;25.86;49.35
77216;BME280;66210;53.282;9.864;2023-07-13T11:09:51;100838.63;;;25.72;50.57
77216;BME280;66210;53.282;9.864;2023-07-13T11:22:47;100853.41;;;25.67;47.90
77216;BME280;66210;53.282;9.864;2023-07-13T11:28:05;100858.78;;;24.82;48.63
77216;BME280;66210;53.282;9.864;2023-07-13T11:30:48;100854.81;;;24.45;48.94
77216;BME280;66210;53.282;9.864;2023-07-13T11:36:02;100865.59;;;23.96;49.98
77216;BME280;66210;53.282;9.864;2023-07-13T11:41:16;100850.38;;;23.41;50.51
77216;BME280;66210;53.282;9.864;2023-07-13T11:43:44;100854.72;;;23.34;51.14
77216;BME280;66210;53.282;9.864;2023-07-13T11:46:25;100863.28;;;23.47;50.81
77216;BME280;66210;53.282;9.864;2023-07-13T11:48:53;100856.44;;;23.37;50.84
77216;BME280;66210;53.282;9.864;2023-07-13T11:51:25;100853.94;;;23.15;51.67
77216;BME280;66210;53.282;9.864;2023-07-13T11:53:54;100854.84;;;22.91;52.28
77216;BME280;66210;53.282;9.864;2023-07-13T11:56:24;100853.13;;;22.79;52.66
77216;BME280;66210;53.282;9.864;2023-07-13T11:58:54;100859.22;;;22.66;53.11
77216;BME280;66210;53.282;9.864;2023-07-13T12:01:28;100855.78;;;22.58;53.60
77216;BME280;66210;53.282;9.864;2023-07-13T12:04:03;100858.38;;;22.58;53.98
77216;BME280;66210;53.282;9.864;2023-07-13T12:06:32;100877.34;;;22.60;54.93
77216;BME280;66210;53.282;9.864;2023-07-13T12:09:00;100875.63;;;22.53;55.17
77216;BME280;66210;53.282;9.864;2023-07-13T12:11:27;100875.66;;;22.36;55.08
77216;BME280;66210;53.282;9.864;2023-07-13T12:13:54;100901.47;;;22.13;55.30
77216;BME280;66210;53.282;9.864;2023-07-13T12:16:26;100919.53;;;21.73;57.48
77216;BME280;66210;53.282;9.864;2023-07-13T12:18:55;100930.53;;;21.29;59.77
77216;BME280;66210;53.282;9.864;2023-07-13T12:21:29;100940.50;;;20.73;62.13
77216;BME280;66210;53.282;9.864;2023-07-13T12:23:56;100967.41;;;20.07;63.65
77216;BME280;66210;53.282;9.864;2023-07-13T12:26:23;100981.44;;;19.60;65.17
77216;BME280;66210;53.282;9.864;2023-07-13T12:28:54;100987.00;;;19.27;66.97
77216;BME280;66210;53.282;9.864;2023-07-13T12:31:26;100984.69;;;18.87;68.01
77216;BME280;66210;53.282;9.864;2023-07-13T12:33:58;100982.56;;;18.63;69.62
77216;BME280;66210;53.282;9.864;2023-07-13T12:36:26;100984.78;;;18.45;70.36
77216;BME280;66210;53.282;9.864;2023-07-13T12:38:53;100977.69;;;18.32;70.93
77216;BME280;66210;53.282;9.864;2023-07-13T12:41:20;100987.19;;;18.34;71.57
77216;BME280;66210;53.282;9.864;2023-07-13T12:43:47;100991.47;;;18.34;71.98
77216;BME280;66210;53.282;9.864;2023-07-13T12:46:19;101001.81;;;18.38;72.69
77216;BME280;66210;53.282;9.864;2023-07-13T12:48:52;101010.53;;;18.45;72.72
77216;BME280;66210;53.282;9.864;2023-07-13T12:51:34;101006.34;;;18.52;73.57
77216;BME280;66210;53.282;9.864;2023-07-13T12:54:21;101008.84;;;18.47;74.71
77216;BME280;66210;53.282;9.864;2023-07-13T12:56:53;101015.72;;;18.46;74.57
77216;BME280;66210;53.282;9.864;2023-07-13T12:59:22;101029.59;;;18.56;75.13
77216;BME280;66210;53.282;9.864;2023-07-13T13:01:49;101029.72;;;18.62;75.50
77216;BME280;66210;53.282;9.864;2023-07-13T13:04:17;101030.59;;;18.64;75.66
77216;BME280;66210;53.282;9.864;2023-07-13T13:06:49;101027.19;;;18.64;76.17
77216;BME280;66210;53.282;9.864;2023-07-13T13:09:17;101033.97;;;18.60;76.75
77216;BME280;66210;53.282;9.864;2023-07-13T13:11:44;101032.97;;;18.52;76.84
77216;BME280;66210;53.282;9.864;2023-07-13T13:14:11;101029.44;;;18.47;77.18
77216;BME280;66210;53.282;9.864;2023-07-13T13:16:49;101030.22;;;18.43;77.64
77216;BME280;66210;53.282;9.864;2023-07-13T13:19:23;101034.41;;;18.36;77.59
77216;BME280;66210;53.282;9.864;2023-07-13T13:21:51;101025.78;;;18.34;78.22
77216;BME280;66210;53.282;9.864;2023-07-13T13:24:23;101026.56;;;18.30;78.68
77216;BME280;66210;53.282;9.864;2023-07-13T13:26:51;101024.81;;;18.29;78.74
77216;BME280;66210;53.282;9.864;2023-07-13T13:29:21;101035.00;;;18.24;78.81
77216;BME280;66210;53.282;9.864;2023-07-13T13:31:51;101033.13;;;18.16;79.08
77216;BME280;66210;53.282;9.864;2023-07-13T13:34:20;101037.22;;;18.06;79.18
77216;BME280;66210;53.282;9.864;2023-07-13T13:36:50;101033.72;;;18.01;79.36
77216;BME280;66210;53.282;9.864;2023-07-13T13:39:24;101034.34;;;17.91;79.41